Time;durP1;ratioP1;P1;durP2;ratioP2;P2;SDS_P1;SDS_P2;PMS_P1;PMS_P2;Temp;Humidity;BMP_temperature;BMP_pressure;BME280_temperature;BME280_humidity;BME280_pressure;Samples;Min_cycle;Max_cycle;Signal;HPM_P1;HPM_P2
2024/01/23 00:01:52;;;;;;;19.27;3.43;;;;;;;;;;5094507;28;20728;-29
2024/01/23 00:04:17;;;;;;;20.17;2.70;;;;;;;;;;5094098;28;20286;-29
2024/01/23 00:06:42;;;;;;;18.08;2.63;;;;;;;;;;5094344;28;20739;-28
2024/01/23 00:09:07;;;;;;;15.02;3.08;;;;;;;;;;5094005;28;20554;-29
2024/01/23 00:11:32;;;;;;;19.73;2.85;;;;;;;;;;5094237;28;20467;-28
2024/01/23 00:13:58;;;;;;;21.83;3.03;;;;;;;;;;5093741;28;20069;-28
2024/01/23 00:16:23;;;;;;;20.90;3.20;;;;;;;;;;5093941;28;20262;-28
2024/01/23 00:18:48;;;;;;;20.60;3.00;;;;;;;;;;5091769;28;20015;-28
2024/01/23 00:21:13;;;;;;;23.27;2.80;;;;;;;;;;5091841;28;20266;-28
2024/01/23 00:23:38;;;;;;;30.33;3.78;;;;;;;;;;5091919;28;20609;-28
2024/01/23 00:26:03;;;;;;;24.20;3.40;;;;;;;;;;5092119;28;20506;-28
2024/01/23 00:28:29;;;;;;;25.00;3.67;;;;;;;;;;5091860;28;20012;-28
2024/01/23 00:30:54;;;;;;;25.50;3.37;;;;;;;;;;5091797;28;20337;-28
2024/01/23 00:33:19;;;;;;;30.30;3.87;;;;;;;;;;5093178;28;20251;-28
2024/01/23 00:35:44;;;;;;;23.70;3.27;;;;;;;;;;5093582;28;20297;-28
2024/01/23 00:38:09;;;;;;;22.55;3.42;;;;;;;;;;5094237;28;20250;-28
2024/01/23 00:40:34;;;;;;;22.38;3.00;;;;;;;;;;5093597;28;20490;-28
2024/01/23 00:43:00;;;;;;;20.50;2.73;;;;;;;;;;5093875;28;20052;-28
2024/01/23 00:45:25;;;;;;;30.63;3.40;;;;;;;;;;5093476;28;20613;-28
2024/01/23 00:47:50;;;;;;;23.10;3.17;;;;;;;;;;5093725;28;20266;-28
2024/01/23 00:50:15;;;;;;;30.23;3.80;;;;;;;;;;5094049;28;20802;-28
2024/01/23 00:52:41;;;;;;;24.55;3.35;;;;;;;;;;5093785;28;20008;-28
2024/01/23 00:55:06;;;;;;;26.63;3.30;;;;;;;;;;5094439;28;20091;-28
2024/01/23 00:57:32;;;;;;;26.58;3.15;;;;;;;;;;5093394;28;20028;-28
2024/01/23 00:59:57;;;;;;;25.42;3.97;;;;;;;;;;5093355;28;20386;-28
2024/01/23 01:02:22;;;;;;;21.88;2.95;;;;;;;;;;5093342;28;20020;-28
2024/01/23 01:04:47;;;;;;;21.77;3.40;;;;;;;;;;5092975;28;20028;-28
2024/01/23 01:07:13;;;;;;;21.65;3.15;;;;;;;;;;5092344;28;20353;-28
2024/01/23 01:09:38;;;;;;;17.23;2.58;;;;;;;;;;5093162;28;20115;-28
2024/01/23 01:12:03;;;;;;;16.15;2.75;;;;;;;;;;5093490;28;20016;-28
2024/01/23 01:14:29;;;;;;;22.83;3.72;;;;;;;;;;5093543;28;20506;-28
2024/01/23 01:16:54;;;;;;;18.77;3.30;;;;;;;;;;5093515;28;20099;-28
2024/01/23 01:19:19;;;;;;;17.33;3.03;;;;;;;;;;5093405;28;20082;-28
2024/01/23 01:21:44;;;;;;;22.70;3.33;;;;;;;;;;5093132;28;20605;-28
2024/01/23 01:24:09;;;;;;;18.33;2.93;;;;;;;;;;5093600;28;20323;-28
2024/01/23 01:26:34;;;;;;;18.10;2.87;;;;;;;;;;5093192;28;20260;-28
2024/01/23 01:28:59;;;;;;;17.40;2.53;;;;;;;;;;5093680;28;20246;-28
2024/01/23 01:31:25;;;;;;;17.07;3.03;;;;;;;;;;5093106;28;20282;-28
2024/01/23 01:33:50;;;;;;;17.30;2.45;;;;;;;;;;5093352;28;20265;-28
2024/01/23 01:36:15;;;;;;;22.63;2.93;;;;;;;;;;5093253;28;20065;-28
2024/01/23 01:38:40;;;;;;;19.10;3.00;;;;;;;;;;5093341;28;20330;-28
2024/01/23 01:41:05;;;;;;;16.43;2.70;;;;;;;;;;5093506;28;20288;-28
2024/01/23 01:43:31;;;;;;;12.17;2.10;;;;;;;;;;5093153;28;20250;-28
2024/01/23 01:46:08;;;;;;;30.80;3.13;;;;;;;;;;5093250;28;20310;-28
2024/01/23 01:48:33;;;;;;;20.67;2.55;;;;;;;;;;5097247;28;20027;-29
2024/01/23 01:50:59;;;;;;;21.58;3.38;;;;;;;;;;5096686;28;20016;-28
2024/01/23 01:53:24;;;;;;;18.00;2.97;;;;;;;;;;5096716;28;20058;-28
2024/01/23 01:55:49;;;;;;;20.90;2.90;;;;;;;;;;5097162;28;20173;-28
2024/01/23 01:58:16;;;;;;;27.02;3.13;;;;;;;;;;5096889;28;20015;-28
2024/01/23 02:00:41;;;;;;;20.95;3.30;;;;;;;;;;5096551;28;20467;-28
2024/01/23 02:03:07;;;;;;;26.20;3.10;;;;;;;;;;5096746;28;20077;-28
2024/01/23 02:05:32;;;;;;;23.40;3.90;;;;;;;;;;5096388;28;20520;-28
2024/01/23 02:07:57;;;;;;;26.73;3.80;;;;;;;;;;5096391;28;20081;-28
2024/01/23 02:10:23;;;;;;;21.85;2.78;;;;;;;;;;5096457;28;20286;-28
2024/01/23 02:12:48;;;;;;;17.02;2.40;;;;;;;;;;5096553;28;20059;-28
2024/01/23 02:15:13;;;;;;;23.17;2.92;;;;;;;;;;5096279;28;20049;-28
2024/01/23 02:17:39;;;;;;;16.87;3.37;;;;;;;;;;5096179;28;20020;-28
2024/01/23 02:20:05;;;;;;;22.80;3.40;;;;;;;;;;5096090;28;20246;-28
2024/01/23 02:22:30;;;;;;;17.83;2.70;;;;;;;;;;5096322;28;20095;-28
2024/01/23 02:24:55;;;;;;;21.67;3.20;;;;;;;;;;5095642;28;20561;-28
2024/01/23 02:27:20;;;;;;;19.60;3.20;;;;;;;;;;5096324;28;20274;-28
2024/01/23 02:29:46;;;;;;;21.30;2.87;;;;;;;;;;5095984;28;20335;-28
2024/01/23 02:32:11;;;;;;;26.67;3.08;;;;;;;;;;5095876;28;20272;-28
2024/01/23 02:34:36;;;;;;;27.17;3.53;;;;;;;;;;5096430;28;20024;-28
2024/01/23 02:37:01;;;;;;;24.63;3.97;;;;;;;;;;5095846;28;20020;-28
2024/01/23 02:39:27;;;;;;;34.45;3.75;;;;;;;;;;5095723;28;20246;-28
2024/01/23 02:41:53;;;;;;;19.42;2.83;;;;;;;;;;5095715;28;20027;-28
2024/01/23 02:44:18;;;;;;;26.00;3.83;;;;;;;;;;5095636;28;20103;-28
2024/01/23 02:46:43;;;;;;;24.23;4.13;;;;;;;;;;5095605;28;20031;-28
2024/01/23 02:49:08;;;;;;;23.90;3.28;;;;;;;;;;5096207;28;20250;-28
2024/01/23 02:51:33;;;;;;;25.03;3.33;;;;;;;;;;5095588;28;20023;-28
2024/01/23 02:53:59;;;;;;;24.10;3.23;;;;;;;;;;5095828;28;20273;-28
2024/01/23 02:56:25;;;;;;;28.38;3.35;;;;;;;;;;5095356;28;20348;-28
2024/01/23 02:58:50;;;;;;;20.50;3.15;;;;;;;;;;5096457;28;20039;-28
2024/01/23 03:01:15;;;;;;;21.97;2.93;;;;;;;;;;5095544;28;20031;-28
2024/01/23 03:03:40;;;;;;;28.27;3.22;;;;;;;;;;5095518;28;20273;-28
2024/01/23 03:06:06;;;;;;;28.63;3.23;;;;;;;;;;5095296;28;20035;-28
2024/01/23 03:08:31;;;;;;;15.90;2.83;;;;;;;;;;5095278;28;20332;-28
2024/01/23 03:10:56;;;;;;;25.80;3.60;;;;;;;;;;5095140;28;20475;-28
2024/01/23 03:13:21;;;;;;;23.27;4.37;;;;;;;;;;5095365;28;20258;-28
2024/01/23 03:15:48;;;;;;;24.17;3.73;;;;;;;;;;5095077;28;20257;-28
2024/01/23 03:18:13;;;;;;;27.50;3.28;;;;;;;;;;5095042;28;20252;-28
2024/01/23 03:20:38;;;;;;;23.60;2.93;;;;;;;;;;5095542;28;20048;-28
2024/01/23 03:23:03;;;;;;;18.63;2.87;;;;;;;;;;5095493;28;20321;-28
2024/01/23 03:25:28;;;;;;;29.92;4.07;;;;;;;;;;5095048;28;20764;-28
2024/01/23 03:27:54;;;;;;;21.23;3.30;;;;;;;;;;5094903;28;20486;-28
2024/01/23 03:30:28;;;;;;;27.85;5.00;;;;;;;;;;5094829;28;20258;-28
2024/01/23 03:32:54;;;;;;;23.10;3.22;;;;;;;;;;5095050;28;20032;-28
2024/01/23 03:35:19;;;;;;;21.63;3.00;;;;;;;;;;5095307;28;20520;-28
2024/01/23 03:37:44;;;;;;;24.15;3.35;;;;;;;;;;5094931;28;20494;-28
2024/01/23 03:40:10;;;;;;;22.53;3.10;;;;;;;;;;5094110;28;20063;-28
2024/01/23 03:42:35;;;;;;;24.33;3.15;;;;;;;;;;5093632;28;20254;-28
2024/01/23 03:45:00;;;;;;;24.00;3.50;;;;;;;;;;5093976;28;20367;-28
2024/01/23 03:47:25;;;;;;;25.53;3.53;;;;;;;;;;5094066;28;20262;-28
2024/01/23 03:49:50;;;;;;;26.13;3.83;;;;;;;;;;5093872;28;20791;-28
2024/01/23 03:52:16;;;;;;;15.90;2.90;;;;;;;;;;5075737;28;20281;-28
2024/01/23 03:54:41;;;;;;;15.77;2.40;;;;;;;;;;5094621;28;20663;-28
2024/01/23 03:57:07;;;;;;;31.02;3.40;;;;;;;;;;5094364;28;20028;-28
2024/01/23 03:59:32;;;;;;;22.90;3.67;;;;;;;;;;5094195;28;20016;-28
2024/01/23 04:01:57;;;;;;;26.43;3.50;;;;;;;;;;5094750;28;20073;-28
2024/01/23 04:04:22;;;;;;;29.17;3.55;;;;;;;;;;5094327;28;20637;-28
2024/01/23 04:06:47;;;;;;;24.58;3.25;;;;;;;;;;5094401;28;20008;-28
2024/01/23 04:09:13;;;;;;;22.03;2.87;;;;;;;;;;5093636;28;20047;-28
2024/01/23 04:11:38;;;;;;;28.23;3.70;;;;;;;;;;5093973;28;20254;-28
2024/01/23 04:14:04;;;;;;;22.50;3.35;;;;;;;;;;5094231;28;20314;-28
2024/01/23 04:16:29;;;;;;;23.53;3.17;;;;;;;;;;5093957;28;20407;-28
2024/01/23 04:18:54;;;;;;;18.77;2.80;;;;;;;;;;5094249;28;20325;-27
2024/01/23 04:21:20;;;;;;;24.13;3.42;;;;;;;;;;5093741;28;20757;-28
2024/01/23 04:23:45;;;;;;;21.38;3.15;;;;;;;;;;5094175;28;20059;-28
2024/01/23 04:26:10;;;;;;;28.10;3.07;;;;;;;;;;5093791;28;20459;-28
2024/01/23 04:28:36;;;;;;;24.43;3.13;;;;;;;;;;5093960;28;20258;-28
2024/01/23 04:31:01;;;;;;;22.40;3.30;;;;;;;;;;5093850;28;20342;-28
2024/01/23 04:33:26;;;;;;;22.10;3.25;;;;;;;;;;5093904;28;20027;-28
2024/01/23 04:35:52;;;;;;;25.90;3.23;;;;;;;;;;5093715;28;20019;-28
2024/01/23 04:38:17;;;;;;;24.03;3.43;;;;;;;;;;5093598;28;20315;-28
2024/01/23 04:40:42;;;;;;;20.70;3.20;;;;;;;;;;5093885;28;20262;-28
2024/01/23 04:43:07;;;;;;;21.70;3.20;;;;;;;;;;5093567;28;20320;-28
2024/01/23 04:45:32;;;;;;;25.13;4.03;;;;;;;;;;5093522;28;20270;-28
2024/01/23 04:47:57;;;;;;;17.77;2.78;;;;;;;;;;5093805;28;20246;-28
2024/01/23 04:50:23;;;;;;;27.50;3.87;;;;;;;;;;5093512;28;20024;-28
2024/01/23 04:52:48;;;;;;;23.90;2.97;;;;;;;;;;5093518;28;20300;-28
2024/01/23 04:55:13;;;;;;;26.37;3.60;;;;;;;;;;5093427;28;20333;-28
2024/01/23 04:57:38;;;;;;;24.88;3.45;;;;;;;;;;5093739;28;20312;-28
2024/01/23 05:00:04;;;;;;;29.63;3.80;;;;;;;;;;5093446;28;20467;-28
2024/01/23 05:02:30;;;;;;;24.42;3.00;;;;;;;;;;5093706;28;20798;-28
2024/01/23 05:04:55;;;;;;;21.55;3.33;;;;;;;;;;5093497;28;20016;-28
2024/01/23 05:07:20;;;;;;;29.20;4.77;;;;;;;;;;5093969;28;20486;-28
2024/01/23 05:09:46;;;;;;;20.83;2.97;;;;;;;;;;5093291;28;20309;-28
2024/01/23 05:12:12;;;;;;;26.13;3.75;;;;;;;;;;5093543;28;20266;-28
2024/01/23 05:14:37;;;;;;;22.75;2.78;;;;;;;;;;5093842;28;20028;-28
2024/01/23 05:17:02;;;;;;;26.87;3.13;;;;;;;;;;5093822;28;20012;-27
2024/01/23 05:19:28;;;;;;;30.73;3.65;;;;;;;;;;5093166;28;20339;-28
2024/01/23 05:21:53;;;;;;;25.17;4.32;;;;;;;;;;5094713;28;20158;-28
2024/01/23 05:24:18;;;;;;;25.63;3.63;;;;;;;;;;5097152;28;20050;-28
2024/01/23 05:26:43;;;;;;;29.60;4.07;;;;;;;;;;5097848;28;20250;-28
2024/01/23 05:29:08;;;;;;;24.23;3.17;;;;;;;;;;5097792;28;20020;-28
2024/01/23 05:31:34;;;;;;;21.60;3.63;;;;;;;;;;5097401;28;20254;-28
2024/01/23 05:33:59;;;;;;;28.10;3.60;;;;;;;;;;5097357;28;20024;-28
2024/01/23 05:36:24;;;;;;;29.37;3.00;;;;;;;;;;5097627;28;20098;-28
2024/01/23 05:38:50;;;;;;;22.47;2.90;;;;;;;;;;5097616;28;20242;-28
2024/01/23 05:41:16;;;;;;;19.90;2.83;;;;;;;;;;5097277;28;20665;-28
2024/01/23 05:43:41;;;;;;;22.25;4.72;;;;;;;;;;5096857;28;20020;-28
2024/01/23 05:46:06;;;;;;;30.63;4.20;;;;;;;;;;5097171;28;20008;-28
2024/01/23 05:48:32;;;;;;;26.95;3.30;;;;;;;;;;5097119;28;20019;-28
2024/01/23 05:50:57;;;;;;;24.45;3.25;;;;;;;;;;5096793;28;20121;-28
2024/01/23 05:53:23;;;;;;;19.95;3.55;;;;;;;;;;5096789;28;20016;-28
2024/01/23 05:55:48;;;;;;;32.03;3.45;;;;;;;;;;5096613;28;20016;-28
2024/01/23 05:58:13;;;;;;;22.38;2.75;;;;;;;;;;5096678;28;20073;-28
2024/01/23 06:00:39;;;;;;;20.80;3.10;;;;;;;;;;5096544;28;20463;-28
2024/01/23 06:03:04;;;;;;;28.00;3.53;;;;;;;;;;5096513;28;20261;-28
2024/01/23 06:05:29;;;;;;;24.23;3.30;;;;;;;;;;5096707;28;20178;-28
2024/01/23 06:07:55;;;;;;;25.63;3.87;;;;;;;;;;5096776;28;20020;-29
2024/01/23 06:10:20;;;;;;;22.83;2.88;;;;;;;;;;5096728;28;20780;-28
2024/01/23 06:12:45;;;;;;;22.08;3.72;;;;;;;;;;5096504;28;20099;-28
2024/01/23 06:15:11;;;;;;;24.67;2.83;;;;;;;;;;5096301;28;20095;-28
2024/01/23 06:17:36;;;;;;;15.93;2.70;;;;;;;;;;5096524;28;20020;-28
2024/01/23 06:20:04;;;;;;;25.45;3.30;;;;;;;;;;5096473;28;20520;-28
2024/01/23 06:22:29;;;;;;;37.75;3.58;;;;;;;;;;5096503;28;20028;-28
2024/01/23 06:25:05;;;;;;;24.45;3.83;;;;;;;;;;5096087;28;20023;-28
2024/01/23 06:27:30;;;;;;;30.63;3.08;;;;;;;;;;5096301;28;20039;-28
2024/01/23 06:29:55;;;;;;;38.65;3.90;;;;;;;;;;5096032;28;20012;-28
2024/01/23 06:32:20;;;;;;;27.13;3.40;;;;;;;;;;5096162;28;20055;-28
2024/01/23 06:34:46;;;;;;;29.33;3.87;;;;;;;;;;5095890;28;20352;-28
2024/01/23 06:37:11;;;;;;;32.80;3.50;;;;;;;;;;5096482;28;20254;-28
2024/01/23 06:39:36;;;;;;;22.37;3.53;;;;;;;;;;5096063;28;20647;-28
2024/01/23 06:42:01;;;;;;;29.80;3.70;;;;;;;;;;5095796;28;20294;-27
2024/01/23 06:44:26;;;;;;;24.85;3.17;;;;;;;;;;5095749;28;20052;-27
2024/01/23 06:46:52;;;;;;;31.20;3.50;;;;;;;;;;5095567;28;20047;-27
2024/01/23 06:49:17;;;;;;;33.60;3.95;;;;;;;;;;5095668;28;20291;-27
2024/01/23 06:51:42;;;;;;;19.95;3.55;;;;;;;;;;5095926;28;20070;-27
2024/01/23 06:54:07;;;;;;;24.70;3.20;;;;;;;;;;5096104;28;20020;-27
2024/01/23 06:56:33;;;;;;;28.65;3.47;;;;;;;;;;5095847;28;20692;-28
2024/01/23 06:58:58;;;;;;;26.00;3.38;;;;;;;;;;5095752;28;20032;-27
2024/01/23 07:01:23;;;;;;;33.13;3.83;;;;;;;;;;5095979;28;20024;-27
2024/01/23 07:03:49;;;;;;;19.98;2.90;;;;;;;;;;5095519;28;20745;-28
2024/01/23 07:06:14;;;;;;;22.63;3.53;;;;;;;;;;5093918;28;20472;-27
2024/01/23 07:08:39;;;;;;;30.40;4.30;;;;;;;;;;5093025;28;20072;-27
2024/01/23 07:11:05;;;;;;;27.13;4.03;;;;;;;;;;5093058;28;20265;-27
2024/01/23 07:13:30;;;;;;;42.53;5.05;;;;;;;;;;5093292;28;20345;-27
2024/01/23 07:15:55;;;;;;;32.25;3.42;;;;;;;;;;5093167;28;20109;-27
2024/01/23 07:18:20;;;;;;;28.33;3.42;;;;;;;;;;5093108;28;20486;-27
2024/01/23 07:20:46;;;;;;;28.13;4.37;;;;;;;;;;5092917;28;20016;-27
2024/01/23 07:23:12;;;;;;;25.93;3.40;;;;;;;;;;5092854;28;20736;-27
2024/01/23 07:25:37;;;;;;;26.02;4.05;;;;;;;;;;5092925;28;20285;-27
2024/01/23 07:28:03;;;;;;;24.63;4.03;;;;;;;;;;5093516;28;20034;-28
2024/01/23 07:30:28;;;;;;;25.23;2.85;;;;;;;;;;5094219;28;20319;-29
2024/01/23 07:32:54;;;;;;;21.40;3.38;;;;;;;;;;5094285;28;20016;-29
2024/01/23 07:35:19;;;;;;;33.87;4.47;;;;;;;;;;5094811;28;20467;-29
2024/01/23 07:37:44;;;;;;;30.05;3.63;;;;;;;;;;5095026;28;20262;-28
2024/01/23 07:40:10;;;;;;;24.40;3.07;;;;;;;;;;5094756;28;20383;-29
2024/01/23 07:42:36;;;;;;;26.52;3.38;;;;;;;;;;5094758;28;20310;-29
2024/01/23 07:45:01;;;;;;;24.88;3.15;;;;;;;;;;5093544;28;20408;-28
2024/01/23 07:47:26;;;;;;;22.63;3.50;;;;;;;;;;5094560;28;20145;-28
2024/01/23 07:49:51;;;;;;;31.50;4.20;;;;;;;;;;5094509;28;20095;-29
2024/01/23 07:52:19;;;;;;;27.08;4.93;;;;;;;;;;5094366;28;20251;-29
2024/01/23 07:54:44;;;;;;;23.40;3.22;;;;;;;;;;5094673;28;20424;-29
2024/01/23 07:57:09;;;;;;;36.30;4.10;;;;;;;;;;5094351;28;20103;-29
2024/01/23 07:59:34;;;;;;;26.97;4.00;;;;;;;;;;5094790;28;20250;-29
2024/01/23 08:02:00;;;;;;;37.20;4.40;;;;;;;;;;5094209;28;20297;-29
2024/01/23 08:04:25;;;;;;;22.05;3.50;;;;;;;;;;5094107;28;20752;-29
2024/01/23 08:06:50;;;;;;;29.00;4.10;;;;;;;;;;5094738;28;20065;-28
2024/01/23 08:09:15;;;;;;;20.00;3.10;;;;;;;;;;5094096;28;20783;-29
2024/01/23 08:11:40;;;;;;;25.83;3.72;;;;;;;;;;5094532;28;20308;-29
2024/01/23 08:14:06;;;;;;;30.30;4.03;;;;;;;;;;5094135;28;20020;-29
2024/01/23 08:16:31;;;;;;;27.40;4.30;;;;;;;;;;5094102;28;20020;-29
2024/01/23 08:19:01;;;;;;;22.33;3.78;;;;;;;;;;5075884;28;20269;-29
2024/01/23 08:21:27;;;;;;;23.15;3.67;;;;;;;;;;5094336;28;20020;-29
2024/01/23 08:23:52;;;;;;;39.58;4.05;;;;;;;;;;5094212;28;20035;-29
2024/01/23 08:26:17;;;;;;;23.13;4.38;;;;;;;;;;5094586;28;20026;-29
2024/01/23 08:28:43;;;;;;;30.92;3.65;;;;;;;;;;5094244;28;20157;-30
2024/01/23 08:31:08;;;;;;;28.30;3.30;;;;;;;;;;5093884;28;20024;-28
2024/01/23 08:33:34;;;;;;;28.38;3.55;;;;;;;;;;5094142;28;20016;-29
2024/01/23 08:36:01;;;;;;;24.05;3.53;;;;;;;;;;5093911;28;20479;-29
2024/01/23 08:38:26;;;;;;;31.45;4.22;;;;;;;;;;5093839;28;20028;-29
2024/01/23 08:40:53;;;;;;;28.85;3.83;;;;;;;;;;5075629;28;20433;-29
2024/01/23 08:43:18;;;;;;;24.35;3.42;;;;;;;;;;5093702;28;20020;-29
2024/01/23 08:45:43;;;;;;;34.90;3.47;;;;;;;;;;5093587;28;20027;-29
2024/01/23 08:48:08;;;;;;;31.58;4.00;;;;;;;;;;5075508;28;20016;-29
2024/01/23 08:50:34;;;;;;;32.08;3.72;;;;;;;;;;5093648;28;20012;-29
2024/01/23 08:52:59;;;;;;;22.08;3.53;;;;;;;;;;5093675;28;20052;-29
2024/01/23 08:55:24;;;;;;;23.00;3.97;;;;;;;;;;5093501;28;20020;-29
2024/01/23 08:57:50;;;;;;;28.15;3.45;;;;;;;;;;5093437;28;20027;-29
2024/01/23 09:00:16;;;;;;;23.67;4.18;;;;;;;;;;5094187;28;20054;-29
2024/01/23 09:02:41;;;;;;;20.27;3.60;;;;;;;;;;5094127;28;20051;-29
2024/01/23 09:05:07;;;;;;;31.02;4.90;;;;;;;;;;5094013;28;20459;-29
2024/01/23 09:07:32;;;;;;;24.65;4.28;;;;;;;;;;5093823;28;20012;-30
2024/01/23 09:09:57;;;;;;;24.38;4.05;;;;;;;;;;5075441;28;20047;-29
2024/01/23 09:12:23;;;;;;;34.67;6.32;;;;;;;;;;5093407;28;20475;-29
2024/01/23 09:14:48;;;;;;;21.15;4.00;;;;;;;;;;5093286;28;20077;-29
2024/01/23 09:17:13;;;;;;;30.33;3.78;;;;;;;;;;5093130;28;20082;-29
2024/01/23 09:19:39;;;;;;;24.80;3.53;;;;;;;;;;5074768;28;20016;-29
2024/01/23 09:22:05;;;;;;;25.02;4.60;;;;;;;;;;5092940;28;20086;-29
2024/01/23 09:24:30;;;;;;;24.05;3.45;;;;;;;;;;5075286;28;20044;-29
2024/01/23 09:26:59;;;;;;;31.30;4.10;;;;;;;;;;5093275;28;20008;-29
2024/01/23 09:29:25;;;;;;;26.50;3.83;;;;;;;;;;5093241;28;20016;-29
2024/01/23 09:31:50;;;;;;;24.75;3.80;;;;;;;;;;5075209;28;20016;-29
2024/01/23 09:34:15;;;;;;;21.23;3.63;;;;;;;;;;5075289;28;20073;-29
2024/01/23 09:36:41;;;;;;;29.73;4.03;;;;;;;;;;5075203;28;20027;-29
2024/01/23 09:39:07;;;;;;;24.42;3.75;;;;;;;;;;5075151;28;20024;-29
2024/01/23 09:41:35;;;;;;;26.50;3.85;;;;;;;;;;5075076;28;20028;-29
2024/01/23 09:44:01;;;;;;;30.15;3.40;;;;;;;;;;5093082;28;20028;-29
2024/01/23 09:46:26;;;;;;;31.80;4.45;;;;;;;;;;5093131;28;20027;-30
2024/01/23 09:48:52;;;;;;;26.42;4.78;;;;;;;;;;5093164;28;20024;-29
2024/01/23 09:51:17;;;;;;;32.55;4.53;;;;;;;;;;5093070;28;20015;-29
2024/01/23 09:53:44;;;;;;;34.13;4.53;;;;;;;;;;5074984;28;20027;-29
2024/01/23 09:56:10;;;;;;;29.55;4.57;;;;;;;;;;5093083;28;20371;-29
2024/01/23 09:58:36;;;;;;;40.30;4.55;;;;;;;;;;5093010;28;20050;-29
2024/01/23 10:01:01;;;;;;;25.70;4.78;;;;;;;;;;5075286;28;20024;-29
2024/01/23 10:03:27;;;;;;;27.20;3.88;;;;;;;;;;5092965;28;20494;-29
2024/01/23 10:05:52;;;;;;;24.42;4.53;;;;;;;;;;5092880;28;20031;-29
2024/01/23 10:08:18;;;;;;;28.70;4.25;;;;;;;;;;5095178;28;20044;-29
2024/01/23 10:10:43;;;;;;;28.83;5.30;;;;;;;;;;5096739;28;20051;-29
2024/01/23 10:13:11;;;;;;;25.25;4.72;;;;;;;;;;5096439;28;20024;-29
2024/01/23 10:15:36;;;;;;;30.58;5.28;;;;;;;;;;5078329;28;20016;-29
2024/01/23 10:18:03;;;;;;;28.00;5.10;;;;;;;;;;5096697;28;20022;-29
2024/01/23 10:20:30;;;;;;;28.73;4.88;;;;;;;;;;5096686;28;20262;-30
2024/01/23 10:22:56;;;;;;;25.35;5.28;;;;;;;;;;5096366;28;20521;-29
2024/01/23 10:25:22;;;;;;;27.02;5.20;;;;;;;;;;5096030;28;20059;-29
2024/01/23 10:27:51;;;;;;;28.13;5.43;;;;;;;;;;5096522;28;20528;-29
2024/01/23 10:30:16;;;;;;;25.45;4.80;;;;;;;;;;5096224;28;20463;-29
2024/01/23 10:32:42;;;;;;;26.45;4.93;;;;;;;;;;5096179;28;20100;-29
2024/01/23 10:35:10;;;;;;;24.98;4.93;;;;;;;;;;5096206;28;20112;-29
2024/01/23 10:37:36;;;;;;;27.42;5.13;;;;;;;;;;5096289;28;20023;-29
2024/01/23 10:40:01;;;;;;;27.42;5.20;;;;;;;;;;5095910;28;20320;-30
2024/01/23 10:42:26;;;;;;;28.67;4.93;;;;;;;;;;5096211;28;20020;-29
2024/01/23 10:44:52;;;;;;;34.90;5.93;;;;;;;;;;5095758;28;20023;-30
2024/01/23 10:47:18;;;;;;;29.58;4.90;;;;;;;;;;5096396;28;20065;-29
2024/01/23 10:49:44;;;;;;;29.67;5.13;;;;;;;;;;5077607;28;20163;-28
2024/01/23 10:52:14;;;;;;;31.60;4.82;;;;;;;;;;5095862;28;20124;-28
2024/01/23 10:54:42;;;;;;;28.98;4.43;;;;;;;;;;5095162;28;20490;-29
2024/01/23 10:57:12;;;;;;;32.65;5.30;;;;;;;;;;5094885;28;20020;-28
2024/01/23 10:59:38;;;;;;;30.48;4.72;;;;;;;;;;5095757;28;20023;-28
2024/01/23 11:02:05;;;;;;;27.88;4.45;;;;;;;;;;5095823;28;20513;-29
2024/01/23 11:04:31;;;;;;;22.90;4.45;;;;;;;;;;5095595;28;20027;-29
2024/01/23 11:07:25;;;;;;;28.55;4.57;;;;;;;;;;5076929;28;20456;-29
2024/01/23 11:09:57;;;;;;;32.92;4.43;;;;;;;;;;5004929;28;20537;-29
2024/01/23 11:12:27;;;;;;;23.83;4.53;;;;;;;;;;5095257;28;20035;-29
2024/01/23 11:14:58;;;;;;;28.50;4.35;;;;;;;;;;5076754;28;20106;-28
2024/01/23 11:17:23;;;;;;;30.75;4.68;;;;;;;;;;5095509;28;20107;-29
2024/01/23 11:20:03;;;;;;;23.35;4.72;;;;;;;;;;5092785;28;20047;-29
2024/01/23 11:22:28;;;;;;;23.98;4.40;;;;;;;;;;5095135;28;20103;-29
2024/01/23 11:24:53;;;;;;;26.10;4.60;;;;;;;;;;5095037;28;20056;-29
2024/01/23 11:27:19;;;;;;;23.70;4.30;;;;;;;;;;5095098;28;20069;-27
2024/01/23 11:29:45;;;;;;;27.25;5.68;;;;;;;;;;5095144;28;20250;-28
2024/01/23 11:32:22;;;;;;;26.55;4.68;;;;;;;;;;5094963;28;20012;-28
2024/01/23 11:34:57;;;;;;;26.70;4.80;;;;;;;;;;5094886;28;20103;-27
2024/01/23 11:37:31;;;;;;;31.02;4.60;;;;;;;;;;5095449;28;20054;-27
2024/01/23 11:39:58;;;;;;;21.92;4.28;;;;;;;;;;5095349;28;20020;-28
2024/01/23 11:42:33;;;;;;;27.73;4.30;;;;;;;;;;5094750;28;20102;-28
2024/01/23 11:45:17;;;;;;;23.40;3.65;;;;;;;;;;5094625;28;20024;-28
2024/01/23 11:47:42;;;;;;;28.50;4.40;;;;;;;;;;5094832;28;20043;-28
2024/01/23 11:50:08;;;;;;;18.55;3.63;;;;;;;;;;5076867;28;20447;-27
2024/01/23 11:52:33;;;;;;;29.00;4.38;;;;;;;;;;5094861;28;20035;-27
2024/01/23 11:54:59;;;;;;;29.90;4.20;;;;;;;;;;5076015;28;20379;-28
2024/01/23 11:57:24;;;;;;;27.67;4.60;;;;;;;;;;5094287;28;20024;-27
2024/01/23 11:59:49;;;;;;;24.90;4.13;;;;;;;;;;5094339;28;20818;-27
2024/01/23 12:02:15;;;;;;;21.95;3.88;;;;;;;;;;5076208;28;20016;-28
2024/01/23 12:04:40;;;;;;;25.05;4.13;;;;;;;;;;5076225;28;20055;-28
2024/01/23 12:07:05;;;;;;;35.57;4.10;;;;;;;;;;5094922;28;20023;-29
2024/01/23 12:09:30;;;;;;;22.00;3.38;;;;;;;;;;5075995;28;20035;-29
2024/01/23 12:11:56;;;;;;;25.52;3.85;;;;;;;;;;5093990;28;20478;-28
2024/01/23 12:14:22;;;;;;;25.92;3.70;;;;;;;;;;5073794;28;20020;-29
2024/01/23 12:16:47;;;;;;;26.02;3.97;;;;;;;;;;5093356;28;20027;-28
2024/01/23 12:19:12;;;;;;;22.00;3.60;;;;;;;;;;5093847;28;20028;-28
2024/01/23 12:21:38;;;;;;;23.50;3.92;;;;;;;;;;5075501;28;20106;-28
2024/01/23 12:24:03;;;;;;;27.63;4.63;;;;;;;;;;5093899;28;20024;-28
2024/01/23 12:26:28;;;;;;;25.83;4.15;;;;;;;;;;5094171;28;20579;-28
2024/01/23 12:28:53;;;;;;;28.73;5.00;;;;;;;;;;5093967;28;20020;-29
2024/01/23 12:31:19;;;;;;;22.07;4.40;;;;;;;;;;5093460;28;20266;-29
2024/01/23 12:33:46;;;;;;;32.28;4.25;;;;;;;;;;5094085;28;20020;-28
2024/01/23 12:36:16;;;;;;;29.20;5.25;;;;;;;;;;5093652;28;20016;-27
2024/01/23 12:38:41;;;;;;;22.73;4.03;;;;;;;;;;5094052;28;20069;-27
2024/01/23 12:41:07;;;;;;;26.42;3.95;;;;;;;;;;5075663;28;20024;-27
2024/01/23 12:43:32;;;;;;;24.27;4.10;;;;;;;;;;5093999;28;20367;-27
2024/01/23 12:45:57;;;;;;;22.52;3.88;;;;;;;;;;5093857;28;20062;-28
2024/01/23 12:48:23;;;;;;;23.42;3.25;;;;;;;;;;5093602;28;20027;-28
2024/01/23 12:50:48;;;;;;;27.20;3.53;;;;;;;;;;5093531;28;20022;-28
2024/01/23 12:53:13;;;;;;;21.17;3.83;;;;;;;;;;5093588;28;20070;-28
2024/01/23 12:55:39;;;;;;;24.83;3.63;;;;;;;;;;5075467;28;20822;-28
2024/01/23 12:58:07;;;;;;;33.97;3.93;;;;;;;;;;5093478;28;20536;-28
2024/01/23 13:00:32;;;;;;;24.15;3.38;;;;;;;;;;5093760;28;20281;-28
2024/01/23 13:02:57;;;;;;;30.27;3.58;;;;;;;;;;5093427;28;20463;-28
2024/01/23 13:05:23;;;;;;;28.38;3.47;;;;;;;;;;5093697;28;20407;-28
2024/01/23 13:07:49;;;;;;;24.90;3.28;;;;;;;;;;5094070;28;20521;-28
2024/01/23 13:10:14;;;;;;;20.42;3.70;;;;;;;;;;5093314;28;20044;-27
2024/01/23 13:12:39;;;;;;;22.73;3.63;;;;;;;;;;5093572;28;20371;-27
2024/01/23 13:15:05;;;;;;;34.20;5.40;;;;;;;;;;5093806;28;20031;-27
2024/01/23 13:17:31;;;;;;;26.50;3.78;;;;;;;;;;5093187;28;20418;-27
2024/01/23 13:19:56;;;;;;;26.52;3.78;;;;;;;;;;5093486;28;20020;-27
2024/01/23 13:22:22;;;;;;;25.38;3.63;;;;;;;;;;5075146;28;20443;-28
2024/01/23 13:24:47;;;;;;;27.48;4.15;;;;;;;;;;5093051;28;20024;-28
2024/01/23 13:27:12;;;;;;;21.43;3.67;;;;;;;;;;5093189;28;20012;-28
2024/01/23 13:29:38;;;;;;;28.35;4.25;;;;;;;;;;5093085;28;20382;-28
2024/01/23 13:32:07;;;;;;;30.40;4.35;;;;;;;;;;5093638;28;20013;-28
2024/01/23 13:34:33;;;;;;;33.20;4.80;;;;;;;;;;5093420;28;20031;-28
2024/01/23 13:36:58;;;;;;;26.50;4.65;;;;;;;;;;5093061;28;20016;-28
2024/01/23 13:39:23;;;;;;;24.42;4.00;;;;;;;;;;5093084;28;20024;-28
2024/01/23 13:41:49;;;;;;;31.93;4.57;;;;;;;;;;5093540;28;20020;-28
2024/01/23 13:44:17;;;;;;;35.95;4.47;;;;;;;;;;5096769;28;20277;-28
2024/01/23 13:46:43;;;;;;;21.10;3.28;;;;;;;;;;5097057;28;20391;-28
2024/01/23 13:49:08;;;;;;;29.45;4.22;;;;;;;;;;5078669;28;20020;-28
2024/01/23 13:51:34;;;;;;;21.58;3.70;;;;;;;;;;5096953;28;20094;-28
2024/01/23 13:53:59;;;;;;;27.17;3.45;;;;;;;;;;5096746;28;20418;-28
2024/01/23 13:56:26;;;;;;;27.23;3.90;;;;;;;;;;5096897;28;20051;-29
2024/01/23 13:58:52;;;;;;;25.73;4.03;;;;;;;;;;5096594;28;20299;-28
2024/01/23 14:01:20;;;;;;;27.70;4.03;;;;;;;;;;5096449;28;20023;-28
2024/01/23 14:03:45;;;;;;;33.33;4.50;;;;;;;;;;5096536;28;20027;-28
2024/01/23 14:06:11;;;;;;;27.27;3.97;;;;;;;;;;5096431;28;20417;-28
2024/01/23 14:08:40;;;;;;;36.10;4.72;;;;;;;;;;5096465;28;20144;-28
2024/01/23 14:11:05;;;;;;;33.63;4.93;;;;;;;;;;5096301;28;20024;-28
2024/01/23 14:13:31;;;;;;;33.90;4.77;;;;;;;;;;5096355;28;20020;-29
2024/01/23 14:15:56;;;;;;;26.15;4.63;;;;;;;;;;5096512;28;20764;-28
2024/01/23 14:18:21;;;;;;;33.90;4.77;;;;;;;;;;5096368;28;20464;-28
2024/01/23 14:20:46;;;;;;;33.30;5.27;;;;;;;;;;5096299;28;20246;-28
2024/01/23 14:23:11;;;;;;;39.07;5.00;;;;;;;;;;5096172;28;20337;-28